createdAt,value
2018-05-15T00:01:07.137Z,101321.10
2018-05-15T00:03:34.735Z,101318.21
2018-05-15T00:06:02.414Z,101317.52
2018-05-15T00:08:29.996Z,101322.04
2018-05-15T00:10:57.614Z,101326.47
2018-05-15T00:13:25.197Z,101327.86
2018-05-15T00:15:52.821Z,101323.66
2018-05-15T00:18:20.481Z,101318.57
2018-05-15T00:20:48.065Z,101325.05
2018-05-15T00:23:15.693Z,101321.50
2018-05-15T00:25:43.281Z,101320.04
2018-05-15T00:28:11.091Z,101324.98
2018-05-15T00:30:38.963Z,101329.72
2018-05-15T00:33:06.757Z,101322.70
2018-05-15T00:35:34.376Z,101329.60
2018-05-15T00:38:02.493Z,101329.30
2018-05-15T00:40:30.124Z,101324.05
2018-05-15T00:42:57.718Z,101324.52
2018-05-15T00:45:25.361Z,101329.22
2018-05-15T00:47:53.521Z,101326.91
2018-05-15T00:50:22.015Z,101324.52
2018-05-15T00:52:49.628Z,101328.98
2018-05-15T00:55:29.053Z,101326.86
2018-05-15T00:57:56.632Z,101332.34
2018-05-15T01:00:24.463Z,101333.19
2018-05-15T01:02:52.081Z,101336.97
2018-05-15T01:05:19.664Z,101330.76
2018-05-15T01:07:47.283Z,101334.38
2018-05-15T01:10:14.881Z,101332.78
2018-05-15T01:12:42.505Z,101329.28
2018-05-15T01:15:10.081Z,101328.40
2018-05-15T01:17:37.716Z,101325.83
2018-05-15T01:20:05.349Z,101331.70
2018-05-15T01:22:32.936Z,101327.77
2018-05-15T01:25:00.552Z,101326.42
2018-05-15T01:27:28.141Z,101331.25
2018-05-15T01:29:55.865Z,101332.36
2018-05-15T01:32:23.496Z,101335.46
2018-05-15T01:34:51.122Z,101334.02
2018-05-15T01:37:18.700Z,101335.80
2018-05-15T01:39:46.333Z,101332.47
2018-05-15T01:42:13.951Z,101335.26
2018-05-15T01:44:41.580Z,101336.66
2018-05-15T01:47:09.161Z,101336.66
2018-05-15T01:49:36.742Z,101332.86
2018-05-15T01:52:04.364Z,101333.97
2018-05-15T01:54:31.948Z,101341.30
2018-05-15T01:56:59.781Z,101332.94
2018-05-15T01:59:27.360Z,101336.16
2018-05-15T02:01:55.003Z,101332.31
2018-05-15T02:04:22.620Z,101333.23
2018-05-15T02:06:50.233Z,101328.20
2018-05-15T02:09:17.818Z,101324.20
2018-05-15T02:11:45.450Z,101321.41
2018-05-15T02:14:13.046Z,101318.93
2018-05-15T02:16:40.661Z,101320.95
2018-05-15T02:19:08.273Z,101324.45
2018-05-15T02:21:36.113Z,101322.76
2018-05-15T02:24:03.729Z,101327.92
2018-05-15T02:26:31.365Z,101325.41
2018-05-15T02:28:58.993Z,101318.94
2018-05-15T02:31:26.578Z,101321.84
2018-05-15T02:33:54.197Z,101314.62
2018-05-15T02:36:21.782Z,101318.87
2018-05-15T02:38:49.546Z,101317.91
2018-05-15T02:41:17.481Z,101316.60
2018-05-15T02:43:45.102Z,101317.34
2018-05-15T02:46:12.704Z,101320.42
2018-05-15T02:48:40.321Z,101319.15
2018-05-15T02:51:07.896Z,101325.20
2018-05-15T02:53:35.519Z,101320.31
2018-05-15T02:56:03.287Z,101317.20
2018-05-15T02:58:30.869Z,101316.60
2018-05-15T03:00:58.476Z,101310.95
2018-05-15T03:03:26.195Z,101315.05
2018-05-15T03:05:53.839Z,101316.84
2018-05-15T03:08:21.500Z,101322.50
2018-05-15T03:10:49.142Z,101313.52
2018-05-15T03:13:16.735Z,101308.48
2018-05-15T03:15:44.369Z,101311.86
2018-05-15T03:18:11.956Z,101308.77
2018-05-15T03:20:39.578Z,101314.56
2018-05-15T03:23:07.164Z,101318.89
2018-05-15T03:25:35.357Z,101325.33
2018-05-15T03:28:02.977Z,101327.81
2018-05-15T03:30:30.557Z,101325.77
2018-05-15T03:32:58.210Z,101323.07
2018-05-15T03:35:26.272Z,101322.59
2018-05-15T03:37:53.898Z,101318.96
2018-05-15T03:40:21.489Z,101327.52
2018-05-15T03:42:49.109Z,101325.47
2018-05-15T03:45:16.725Z,101330.19
2018-05-15T03:47:44.358Z,101328.63
2018-05-15T03:50:11.949Z,101321.59
2018-05-15T03:52:39.524Z,101320.25
2018-05-15T03:55:07.148Z,101321.34
2018-05-15T03:57:34.887Z,101314.59
2018-05-15T04:00:02.654Z,101308.58
2018-05-15T04:02:42.085Z,101308.71
2018-05-15T04:05:21.514Z,101312.84
2018-05-15T04:08:05.945Z,101309.77
2018-05-15T04:10:33.525Z,101314.19
2018-05-15T04:13:01.149Z,101314.89
2018-05-15T04:15:28.728Z,101313.09
2018-05-15T04:17:56.365Z,101319.78
2018-05-15T04:20:23.951Z,101314.13
2018-05-15T04:22:51.592Z,101318.41
2018-05-15T04:25:19.180Z,101317.52
2018-05-15T04:27:46.804Z,101323.63
2018-05-15T04:30:14.601Z,101318.95
2018-05-15T04:32:42.225Z,101318.86
2018-05-15T04:35:09.905Z,101313.61
2018-05-15T04:37:37.585Z,101314.55
2018-05-15T04:40:05.197Z,101315.48
2018-05-15T04:42:32.794Z,101305.30
2018-05-15T04:45:01.127Z,101314.06
2018-05-15T04:47:28.941Z,101311.80
2018-05-15T04:49:56.684Z,101315.59
2018-05-15T04:52:24.480Z,101314.19
2018-05-15T04:54:52.238Z,101316.86
2018-05-15T04:57:20.076Z,101324.70
2018-05-15T04:59:47.666Z,101321.23
2018-05-15T05:02:15.257Z,101323.03
2018-05-15T05:04:42.991Z,101331.06
2018-05-15T05:07:10.846Z,101320.67
2018-05-15T05:09:38.472Z,101327.84
2018-05-15T05:12:06.131Z,101324.63
2018-05-15T05:14:33.708Z,101326.08
2018-05-15T05:17:01.332Z,101326.87
2018-05-15T05:19:28.913Z,101329.09
2018-05-15T05:21:56.618Z,101331.19
2018-05-15T05:24:24.243Z,101335.95
2018-05-15T05:26:51.879Z,101338.07
2018-05-15T05:29:19.615Z,101336.87
2018-05-15T05:31:47.216Z,101338.90
2018-05-15T05:34:14.843Z,101338.11
2018-05-15T05:36:42.662Z,101344.30
2018-05-15T05:39:10.289Z,101352.27
2018-05-15T05:41:37.997Z,101345.41
2018-05-15T05:44:05.817Z,101345.43
2018-05-15T05:46:33.407Z,101344.20
2018-05-15T05:49:01.101Z,101352.63
2018-05-15T05:51:28.941Z,101355.32
2018-05-15T05:53:56.606Z,101353.80
2018-05-15T05:56:24.205Z,101348.55
2018-05-15T05:58:51.922Z,101351.09
2018-05-15T06:01:20.333Z,101355.89
2018-05-15T06:03:47.916Z,101355.45
2018-05-15T06:06:15.544Z,101352.59
2018-05-15T06:08:43.288Z,101354.25
2018-05-15T06:11:10.927Z,101356.75
2018-05-15T06:13:38.556Z,101352.41
2018-05-15T06:16:06.185Z,101351.17
2018-05-15T06:18:33.773Z,101351.14
2018-05-15T06:21:01.478Z,101354.89
2018-05-15T06:23:29.047Z,101359.35
2018-05-15T06:25:56.703Z,101356.19
2018-05-15T06:28:24.323Z,101349.30
2018-05-15T06:30:51.966Z,101353.08
2018-05-15T06:33:20.303Z,101354.12
2018-05-15T06:35:47.914Z,101357.20
2018-05-15T06:38:15.537Z,101351.86
2018-05-15T06:40:43.116Z,101353.45
2018-05-15T06:43:10.759Z,101356.77
2018-05-15T06:45:38.396Z,101347.22
2018-05-15T06:48:08.113Z,101352.42
2018-05-15T06:50:35.705Z,101347.53
2018-05-15T06:53:03.326Z,101347.81
2018-05-15T06:55:30.944Z,101346.98
2018-05-15T06:57:58.531Z,101343.02
2018-05-15T07:00:26.308Z,101343.98
2018-05-15T07:02:53.890Z,101345.08
2018-05-15T07:05:22.076Z,101345.47
2018-05-15T07:07:49.790Z,101343.03
2018-05-15T07:10:17.668Z,101345.10
2018-05-15T07:12:45.735Z,101346.61
2018-05-15T07:15:14.287Z,101349.09
2018-05-15T07:17:43.048Z,101349.88
2018-05-15T07:20:10.638Z,101347.82
2018-05-15T07:22:38.261Z,101356.45
2018-05-15T07:25:06.092Z,101353.06
2018-05-15T07:27:33.873Z,101356.84
2018-05-15T07:30:03.462Z,101364.16
2018-05-15T07:32:32.290Z,101356.11
2018-05-15T07:34:59.917Z,101349.05
2018-05-15T07:37:27.719Z,101354.95
2018-05-15T07:39:55.427Z,101350.12
2018-05-15T07:42:23.094Z,101354.79
2018-05-15T07:44:50.729Z,101348.96
2018-05-15T07:47:18.387Z,101343.65
2018-05-15T07:49:47.493Z,101346.98
2018-05-15T07:52:15.254Z,101347.55
2018-05-15T07:54:44.392Z,101351.74
2018-05-15T07:57:12.248Z,101356.99
2018-05-15T07:59:39.875Z,101357.58
2018-05-15T08:02:07.722Z,101347.00
2018-05-15T08:04:35.546Z,101350.96
2018-05-15T08:07:03.915Z,101345.41
2018-05-15T08:09:31.522Z,101345.46
2018-05-15T08:11:59.784Z,101344.55
2018-05-15T08:14:27.461Z,101343.84
2018-05-15T08:16:55.341Z,101344.49
2018-05-15T08:19:22.985Z,101346.54
2018-05-15T08:21:50.809Z,101349.39
2018-05-15T08:24:19.256Z,101347.27
2018-05-15T08:26:47.072Z,101350.33
2018-05-15T08:29:14.664Z,101344.07
2018-05-15T08:31:42.246Z,101347.72
2018-05-15T08:34:09.877Z,101349.58
2018-05-15T08:36:37.494Z,101349.17
2018-05-15T08:39:07.471Z,101351.81
2018-05-15T08:41:35.262Z,101357.69
2018-05-15T08:44:02.894Z,101350.55
2018-05-15T08:46:31.288Z,101354.71
2018-05-15T08:48:58.873Z,101361.66
2018-05-15T08:51:26.558Z,101356.47
2018-05-15T08:53:54.150Z,101362.00
2018-05-15T08:56:21.809Z,101361.67
2018-05-15T08:58:49.391Z,101365.37
2018-05-15T09:01:17.082Z,101355.36
2018-05-15T09:03:44.888Z,101359.80
2018-05-15T09:06:12.481Z,101357.63
2018-05-15T09:08:40.116Z,101358.53
2018-05-15T09:11:07.717Z,101357.28
2018-05-15T09:13:35.347Z,101361.08
2018-05-15T09:16:04.673Z,101355.92
2018-05-15T09:18:32.316Z,101352.11
2018-05-15T09:21:07.859Z,101353.73
2018-05-15T09:23:35.620Z,101350.91
2018-05-15T09:26:03.471Z,101350.16
2018-05-15T09:28:31.113Z,101348.56
2018-05-15T09:30:58.702Z,101349.84
2018-05-15T09:33:26.710Z,101351.44
2018-05-15T09:35:54.337Z,101353.09
2018-05-15T09:38:21.913Z,101346.75
2018-05-15T09:40:49.591Z,101343.75
2018-05-15T09:46:26.612Z,101344.83
2018-05-15T09:48:54.541Z,101344.41
2018-05-15T09:51:22.350Z,101338.77
2018-05-15T09:53:49.957Z,101351.77
2018-05-15T09:56:18.789Z,101344.07
2018-05-15T09:58:46.396Z,101338.30
2018-05-15T10:01:16.349Z,101341.42
2018-05-15T10:03:44.071Z,101337.12
2018-05-15T10:06:11.929Z,101342.33
2018-05-15T10:08:39.592Z,101337.00
2018-05-15T10:11:07.181Z,101340.11
2018-05-15T10:13:36.297Z,101330.03
2018-05-15T10:16:03.926Z,101327.14
2018-05-15T10:18:32.134Z,101334.61
2018-05-15T10:20:59.713Z,101329.53
2018-05-15T10:23:28.524Z,101325.37
2018-05-15T10:25:56.139Z,101316.19
2018-05-15T10:28:24.623Z,101320.22
2018-05-15T10:30:52.261Z,101325.59
2018-05-15T10:33:19.949Z,101314.75
2018-05-15T10:35:47.544Z,101324.00
2018-05-15T10:38:15.157Z,101326.81
2018-05-15T10:40:43.503Z,101321.47
2018-05-15T10:43:11.093Z,101325.09
2018-05-15T10:45:38.673Z,101319.20
2018-05-15T10:48:06.313Z,101316.88
2018-05-15T10:50:34.111Z,101313.16
2018-05-15T10:53:01.678Z,101306.15
2018-05-15T10:55:29.908Z,101307.14
2018-05-15T10:57:57.488Z,101314.91
2018-05-15T11:00:25.097Z,101302.23
2018-05-15T11:02:52.886Z,101306.16
2018-05-15T11:05:20.509Z,101299.70
2018-05-15T11:07:48.127Z,101293.36
2018-05-15T11:10:15.889Z,101301.97
2018-05-15T11:12:43.759Z,101301.14
2018-05-15T11:15:11.338Z,101295.10
2018-05-15T11:17:38.921Z,101288.16
2018-05-15T11:20:18.233Z,101295.83
2018-05-15T11:22:57.627Z,101296.89
2018-05-15T11:25:25.210Z,101287.87
2018-05-15T11:27:52.830Z,101290.34
2018-05-15T11:30:20.548Z,101288.47
2018-05-15T11:32:48.184Z,101291.78
2018-05-15T11:35:15.761Z,101284.28
2018-05-15T11:37:43.389Z,101287.14
2018-05-15T11:40:11.148Z,101286.38
2018-05-15T11:42:38.720Z,101290.48
2018-05-15T11:45:07.145Z,101282.95
2018-05-15T11:47:34.958Z,101280.84
2018-05-15T11:50:03.508Z,101274.55
2018-05-15T11:52:32.072Z,101277.98
2018-05-15T11:54:59.333Z,101278.30
2018-05-15T11:57:27.668Z,101274.34
2018-05-15T11:59:56.310Z,101270.99
2018-05-15T12:02:24.429Z,101274.62
2018-05-15T12:04:52.698Z,101274.42
2018-05-15T12:07:22.225Z,101264.64
2018-05-15T12:09:50.829Z,101263.77
2018-05-15T12:12:18.514Z,101263.89
2018-05-15T12:14:47.073Z,101264.13
2018-05-15T12:17:14.693Z,101255.91
2018-05-15T12:19:42.439Z,101256.75
2018-05-15T12:22:10.187Z,101262.13
2018-05-15T12:24:38.034Z,101268.90
2018-05-15T12:27:06.033Z,101258.11
2018-05-15T12:29:33.921Z,101260.55
2018-05-15T12:32:02.354Z,101249.48
2018-05-15T12:34:30.905Z,101257.50
2018-05-15T12:37:01.483Z,101249.06
2018-05-15T12:39:29.501Z,101250.00
2018-05-15T12:41:57.242Z,101254.99
2018-05-15T12:44:24.860Z,101245.20
2018-05-15T12:46:52.775Z,101240.20
2018-05-15T12:49:21.384Z,101239.41
2018-05-15T12:51:50.198Z,101246.06
2018-05-15T12:54:18.191Z,101244.95
2018-05-15T12:56:46.069Z,101239.51
2018-05-15T12:59:13.678Z,101241.47
2018-05-15T13:01:41.652Z,101238.62
2018-05-15T13:04:09.520Z,101233.00
2018-05-15T13:06:37.138Z,101232.08
2018-05-15T13:09:06.088Z,101234.99
2018-05-15T13:11:33.760Z,101240.29
2018-05-15T13:14:02.136Z,101232.67
2018-05-15T13:16:29.871Z,101224.98
2018-05-15T13:18:57.561Z,101225.50
2018-05-15T13:21:25.229Z,101218.30
2018-05-15T13:23:52.841Z,101221.41
2018-05-15T13:26:21.197Z,101210.94
2018-05-15T13:28:48.794Z,101206.73
2018-05-15T13:31:17.155Z,101203.14
2018-05-15T13:33:44.729Z,101206.06
2018-05-15T13:36:12.408Z,101203.89
2018-05-15T13:38:39.985Z,101200.07
2018-05-15T13:41:07.661Z,101195.69
2018-05-15T13:43:35.693Z,101200.65
2018-05-15T13:46:03.565Z,101196.03
2018-05-15T13:48:31.140Z,101194.94
2018-05-15T13:50:58.728Z,101190.03
2018-05-15T13:53:26.351Z,101185.38
2018-05-15T13:55:54.794Z,101189.13
2018-05-15T13:58:22.477Z,101183.65
2018-05-15T14:00:50.246Z,101185.84
2018-05-15T14:03:17.857Z,101180.25
2018-05-15T14:05:45.496Z,101177.65
2018-05-15T14:08:13.122Z,101174.56
2018-05-15T14:10:40.733Z,101177.06
2018-05-15T14:13:08.311Z,101174.30
2018-05-15T14:15:35.921Z,101164.70
2018-05-15T14:18:03.704Z,101168.28
2018-05-15T14:20:31.274Z,101167.06
2018-05-15T14:22:58.877Z,101166.72
2018-05-15T14:25:26.744Z,101158.61
2018-05-15T14:27:55.319Z,101161.69
2018-05-15T14:30:23.018Z,101159.22
2018-05-15T14:32:50.918Z,101159.17
2018-05-15T14:35:18.489Z,101158.66
2018-05-15T14:37:46.068Z,101160.48
2018-05-15T14:40:13.844Z,101162.68
2018-05-15T14:42:53.369Z,101157.39
2018-05-15T14:45:20.948Z,101157.86
2018-05-15T14:47:48.565Z,101161.03
2018-05-15T14:50:16.181Z,101160.81
2018-05-15T14:52:44.417Z,101173.20
2018-05-15T14:55:12.030Z,101171.12
2018-05-15T14:57:39.604Z,101159.08
2018-05-15T15:00:07.216Z,101157.98
2018-05-15T15:02:34.796Z,101156.25
2018-05-15T15:05:02.369Z,101153.03
2018-05-15T15:07:29.984Z,101150.27
2018-05-15T15:09:58.301Z,101148.36
2018-05-15T15:12:25.878Z,101146.47
2018-05-15T15:14:53.547Z,101147.20
2018-05-15T15:17:21.156Z,101151.58
2018-05-15T15:19:48.800Z,101152.83
2018-05-15T15:22:16.415Z,101149.55
2018-05-15T15:24:43.981Z,101153.78
2018-05-15T15:27:12.186Z,101149.85
2018-05-15T15:29:39.800Z,101156.15
2018-05-15T15:32:07.448Z,101157.09
2018-05-15T15:34:35.029Z,101152.45
2018-05-15T15:37:02.829Z,101154.30
2018-05-15T15:39:30.408Z,101154.19
2018-05-15T15:41:58.038Z,101154.09
2018-05-15T15:44:25.798Z,101143.16
2018-05-15T15:46:53.416Z,101154.16
2018-05-15T15:49:21.796Z,101141.00
2018-05-15T15:51:50.539Z,101139.41
2018-05-15T15:54:18.113Z,101138.28
2018-05-15T15:56:45.843Z,101137.09
2018-05-15T15:59:13.462Z,101141.34
2018-05-15T16:01:41.073Z,101138.02
2018-05-15T16:04:08.659Z,101135.14
2018-05-15T16:06:36.570Z,101138.76
2018-05-15T16:09:04.862Z,101136.11
2018-05-15T16:11:32.474Z,101133.81
2018-05-15T16:14:00.056Z,101131.41
2018-05-15T16:16:27.662Z,101126.73
2018-05-15T16:18:56.118Z,101122.72
2018-05-15T16:21:24.295Z,101119.65
2018-05-15T16:23:51.919Z,101116.81
2018-05-15T16:26:19.528Z,101112.48
2018-05-15T16:28:47.154Z,101120.25
2018-05-15T16:31:14.727Z,101114.80
2018-05-15T16:33:42.305Z,101113.05
2018-05-15T16:36:09.913Z,101116.19
2018-05-15T16:38:38.598Z,101107.52
2018-05-15T16:41:06.174Z,101108.98
2018-05-15T16:43:34.544Z,101107.58
2018-05-15T16:46:02.316Z,101105.27
2018-05-15T16:48:29.930Z,101098.52
2018-05-15T16:50:57.548Z,101106.81
2018-05-15T16:53:25.329Z,101107.80
2018-05-15T16:55:52.948Z,101104.99
2018-05-15T16:58:20.745Z,101094.88
2018-05-15T17:00:48.364Z,101100.59
2018-05-15T17:03:15.996Z,101099.95
2018-05-15T17:05:44.271Z,101099.74
2018-05-15T17:08:12.306Z,101094.66
2018-05-15T17:10:40.866Z,101096.17
2018-05-15T17:13:08.487Z,101089.77
2018-05-15T17:15:36.110Z,101090.11
2018-05-15T17:18:03.897Z,101089.88
2018-05-15T17:20:38.639Z,101085.08
2018-05-15T17:23:11.941Z,101080.53
2018-05-15T17:25:44.654Z,101078.08
2018-05-15T17:28:12.371Z,101079.15
2018-05-15T17:30:39.960Z,101083.25
2018-05-15T17:33:07.584Z,101079.48
2018-05-15T17:35:35.194Z,101076.42
2018-05-15T17:38:02.812Z,101081.59
2018-05-15T17:40:31.000Z,101080.11
2018-05-15T17:42:58.694Z,101077.41
2018-05-15T17:45:26.284Z,101077.46
2018-05-15T17:47:53.925Z,101071.94
2018-05-15T17:50:21.545Z,101073.36
2018-05-15T17:52:49.194Z,101070.05
2018-05-15T17:55:16.931Z,101069.07
2018-05-15T17:57:46.491Z,101072.62
2018-05-15T18:00:14.298Z,101075.77
2018-05-15T18:02:41.921Z,101066.41
2018-05-15T18:05:09.722Z,101061.72
2018-05-15T18:07:37.553Z,101071.19
2018-05-15T18:10:06.226Z,101056.00
2018-05-15T18:12:33.996Z,101061.59
2018-05-15T18:15:01.590Z,101055.23
2018-05-15T18:17:30.090Z,101055.73
2018-05-15T18:19:58.521Z,101057.48
2018-05-15T18:22:27.012Z,101056.20
2018-05-15T18:24:54.581Z,101056.53
2018-05-15T18:27:22.713Z,101049.75
2018-05-15T18:29:50.771Z,101048.20
2018-05-15T18:32:20.091Z,101044.98
2018-05-15T18:34:47.677Z,101043.33
2018-05-15T18:37:15.476Z,101041.20
2018-05-15T18:39:43.225Z,101049.57
2018-05-15T18:42:11.762Z,101047.22
2018-05-15T18:44:40.649Z,101046.45
2018-05-15T18:47:09.517Z,101044.48
2018-05-15T18:49:38.252Z,101049.98
2018-05-15T18:52:06.219Z,101049.34
2018-05-15T18:54:34.476Z,101047.41
2018-05-15T18:57:02.674Z,101049.52
2018-05-15T18:59:30.256Z,101050.13
2018-05-15T19:01:58.252Z,101048.12
2018-05-15T19:04:29.077Z,101050.71
2018-05-15T19:06:57.961Z,101048.30
2018-05-15T19:09:26.595Z,101047.33
2018-05-15T19:11:55.413Z,101046.06
2018-05-15T19:14:25.919Z,101053.45
2018-05-15T19:16:56.893Z,101056.58
2018-05-15T19:19:25.790Z,101062.66
2018-05-15T19:21:54.522Z,101063.16
2018-05-15T19:24:22.373Z,101064.80
2018-05-15T19:26:51.306Z,101070.66
2018-05-15T19:29:19.838Z,101074.30
2018-05-15T19:31:54.064Z,101069.62
2018-05-15T19:34:24.554Z,101077.86
2018-05-15T19:36:53.361Z,101076.73
2018-05-15T19:39:28.218Z,101081.99
2018-05-15T19:41:57.403Z,101080.02
2018-05-15T19:44:26.170Z,101078.23
2018-05-15T19:46:55.066Z,101078.69
2018-05-15T19:49:22.982Z,101075.16
2018-05-15T19:51:50.693Z,101081.45
2018-05-15T19:54:19.600Z,101075.41
2018-05-15T19:56:48.189Z,101079.72
2018-05-15T19:59:17.123Z,101072.02
2018-05-15T20:01:45.475Z,101075.63
2018-05-15T20:04:13.798Z,101071.25
2018-05-15T20:06:41.454Z,101068.48
2018-05-15T20:09:09.383Z,101071.99
2018-05-15T20:11:38.225Z,101076.63
2018-05-15T20:14:06.366Z,101078.80
2018-05-15T20:16:37.752Z,101077.45
2018-05-15T20:19:06.416Z,101075.52
2018-05-15T20:21:34.190Z,101073.95
2018-05-15T20:24:02.202Z,101077.16
2018-05-15T20:26:30.588Z,101076.80
2018-05-15T20:28:59.719Z,101085.72
2018-05-15T20:31:29.133Z,101091.47
2018-05-15T20:33:57.905Z,101092.02
2018-05-15T20:36:27.418Z,101098.00
2018-05-15T20:38:55.329Z,101095.84
2018-05-15T20:41:24.861Z,101105.94
2018-05-15T20:43:53.689Z,101101.61
2018-05-15T20:46:23.494Z,101094.21
2018-05-15T20:48:51.870Z,101101.60
2018-05-15T20:51:20.909Z,101108.46
2018-05-15T20:53:49.240Z,101105.23
2018-05-15T20:56:18.507Z,101107.16
2018-05-15T20:58:47.181Z,101108.83
2018-05-15T21:01:15.909Z,101111.27
2018-05-15T21:03:44.865Z,101107.37
2018-05-15T21:06:12.970Z,101107.84
2018-05-15T21:08:41.364Z,101107.80
2018-05-15T21:11:09.819Z,101114.14
2018-05-15T21:13:38.731Z,101109.86
2018-05-15T21:16:08.213Z,101115.45
2018-05-15T21:18:36.256Z,101115.04
2018-05-15T21:21:05.085Z,101109.87
2018-05-15T21:23:33.689Z,101112.45
2018-05-15T21:26:01.831Z,101120.55
2018-05-15T21:28:30.070Z,101123.63
2018-05-15T21:30:58.604Z,101125.11
2018-05-15T21:33:27.646Z,101126.34
2018-05-15T21:35:55.989Z,101126.09
2018-05-15T21:38:24.537Z,101126.88
2018-05-15T21:40:53.106Z,101123.45
2018-05-15T21:43:21.950Z,101126.77
2018-05-15T21:45:49.894Z,101127.41
2018-05-15T21:48:18.820Z,101130.55
2018-05-15T21:50:47.502Z,101123.70
2018-05-15T21:53:16.167Z,101132.41
2018-05-15T21:55:44.802Z,101126.13
2018-05-15T21:58:12.471Z,101128.02
2018-05-15T22:00:40.665Z,101125.77
2018-05-15T22:03:09.025Z,101124.02
2018-05-15T22:05:37.359Z,101114.89
2018-05-15T22:08:07.858Z,101119.11
2018-05-15T22:10:36.248Z,101113.64
2018-05-15T22:13:15.633Z,101108.94
2018-05-15T22:15:55.719Z,101106.41
2018-05-15T22:18:36.079Z,101106.59
2018-05-15T22:21:16.481Z,101104.56
2018-05-15T22:23:44.928Z,101104.14
2018-05-15T22:26:12.577Z,101102.78
2018-05-15T22:28:41.726Z,101107.73
2018-05-15T22:31:10.885Z,101112.86
2018-05-15T22:33:39.705Z,101110.88
2018-05-15T22:36:08.104Z,101107.02
2018-05-15T22:38:35.720Z,101103.17
2018-05-15T22:41:03.292Z,101108.46
2018-05-15T22:43:35.273Z,101099.90
2018-05-15T22:46:02.893Z,101102.80
2018-05-15T22:48:30.520Z,101100.74
2018-05-15T22:50:58.188Z,101099.05
2018-05-15T22:53:25.770Z,101093.08
2018-05-15T22:55:54.225Z,101090.97
2018-05-15T22:58:21.808Z,101095.22
2018-05-15T23:00:49.395Z,101092.31
2018-05-15T23:03:17.010Z,101090.91
2018-05-15T23:05:44.639Z,101086.14
2018-05-15T23:08:13.401Z,101094.13
2018-05-15T23:10:41.208Z,101090.63
2018-05-15T23:13:09.461Z,101092.18
2018-05-15T23:15:37.119Z,101092.39
2018-05-15T23:18:04.709Z,101086.70
2018-05-15T23:20:32.293Z,101095.81
2018-05-15T23:22:59.914Z,101096.55
2018-05-15T23:25:27.509Z,101092.18
2018-05-15T23:27:55.128Z,101094.95
2018-05-15T23:30:22.746Z,101095.05
2018-05-15T23:32:50.325Z,101098.75
2018-05-15T23:35:17.984Z,101104.28
2018-05-15T23:37:45.575Z,101098.88
2018-05-15T23:40:13.195Z,101098.18
2018-05-15T23:42:40.776Z,101102.97
2018-05-15T23:45:08.989Z,101099.75
2018-05-15T23:47:36.621Z,101102.70
2018-05-15T23:50:04.653Z,101101.39
2018-05-15T23:52:32.272Z,101103.08
2018-05-15T23:54:59.850Z,101100.34
2018-05-15T23:57:27.473Z,101094.11
2018-05-15T23:59:55.093Z,101097.31
